Time;durP1;ratioP1;P1;durP2;ratioP2;P2;SDS_P1;SDS_P2;PMS_P1;PMS_P2;Temp;Humidity;BMP_temperature;BMP_pressure;BME280_temperature;BME280_humidity;BME280_pressure;Samples;Min_cycle;Max_cycle;Signal;HPM_P1;HPM_P2
2023/08/14 00:01:10;;;;;;;9.32;2.00;;;15.30;99.90;;;;;;6196896;23;20100;-72
2023/08/14 00:03:35;;;;;;;7.60;2.20;;;15.30;99.90;;;;;;6197907;23;20099;-72
2023/08/14 00:06:01;;;;;;;6.75;2.00;;;15.30;99.90;;;;;;6199077;23;20011;-72
2023/08/14 00:08:27;;;;;;;7.95;2.10;;;15.30;99.90;;;;;;6197450;23;20437;-72
2023/08/14 00:10:52;;;;;;;9.57;2.05;;;15.30;99.90;;;;;;6197632;23;20543;-72
2023/08/14 00:13:20;;;;;;;10.13;1.92;;;15.30;99.90;;;;;;6197829;23;20092;-72
2023/08/14 00:15:46;;;;;;;8.25;1.80;;;15.40;99.90;;;;;;6197634;23;20454;-72
2023/08/14 00:18:11;;;;;;;8.52;2.42;;;15.40;99.90;;;;;;6198309;23;20012;-72
2023/08/14 00:20:37;;;;;;;8.40;1.98;;;15.40;99.90;;;;;;6196049;23;20306;-72
2023/08/14 00:23:03;;;;;;;6.85;2.13;;;15.30;99.90;;;;;;6196584;23;20008;-72
2023/08/14 00:25:29;;;;;;;10.30;2.25;;;15.30;99.90;;;;;;6193720;23;20031;-72
2023/08/14 00:27:54;;;;;;;10.52;2.38;;;15.30;99.90;;;;;;6194673;23;20008;-72
2023/08/14 00:30:20;;;;;;;5.55;1.83;;;15.20;99.90;;;;;;6195398;23;20268;-72
2023/08/14 00:32:46;;;;;;;6.22;1.80;;;15.20;99.90;;;;;;6197598;23;20009;-72
2023/08/14 00:35:11;;;;;;;6.82;1.63;;;15.10;99.90;;;;;;6196170;23;20016;-71
2023/08/14 00:37:41;;;;;;;6.60;2.05;;;15.10;99.90;;;;;;6196239;23;20280;-72
2023/08/14 00:40:08;;;;;;;7.10;1.83;;;15.10;99.90;;;;;;6195744;23;20373;-72
2023/08/14 00:42:34;;;;;;;7.25;1.80;;;15.00;99.90;;;;;;6195490;23;20008;-72
2023/08/14 00:45:00;;;;;;;5.35;1.40;;;15.00;99.90;;;;;;6195406;23;20067;-72
2023/08/14 00:47:25;;;;;;;4.78;1.95;;;15.00;99.90;;;;;;6196882;23;20433;-72
2023/08/14 00:49:51;;;;;;;5.45;1.55;;;15.00;99.90;;;;;;6194677;23;20009;-72
2023/08/14 00:52:17;;;;;;;8.35;1.73;;;15.10;99.90;;;;;;6197371;23;20084;-72
2023/08/14 00:54:42;;;;;;;7.60;1.70;;;15.00;99.90;;;;;;6196013;23;20004;-72
2023/08/14 00:57:08;;;;;;;8.88;1.80;;;15.00;99.90;;;;;;6195953;23;20005;-72
2023/08/14 00:59:34;;;;;;;9.15;1.77;;;14.90;99.90;;;;;;6195397;23;20005;-72
2023/08/14 01:02:00;;;;;;;6.10;2.08;;;14.90;99.90;;;;;;6195102;23;20352;-72
2023/08/14 01:04:26;;;;;;;7.03;1.80;;;14.80;99.90;;;;;;6190487;23;20086;-72
2023/08/14 01:06:51;;;;;;;6.55;1.88;;;14.80;99.90;;;;;;6166694;23;20437;-71
2023/08/14 01:09:17;;;;;;;4.78;1.90;;;14.80;99.90;;;;;;6195901;23;20065;-72
2023/08/14 01:11:58;;;;;;;7.15;2.30;;;14.80;99.90;;;;;;6170142;23;20091;-72
2023/08/14 01:14:28;;;;;;;9.13;1.88;;;14.80;99.90;;;;;;6195971;23;20017;-71
2023/08/14 01:16:59;;;;;;;12.95;2.20;;;14.70;99.90;;;;;;6197713;23;20005;-72
2023/08/14 01:19:32;;;;;;;7.72;2.05;;;14.70;99.90;;;;;;6195640;23;20012;-72
2023/08/14 01:22:05;;;;;;;6.43;1.90;;;14.80;99.90;;;;;;6196349;23;20256;-72
2023/08/14 01:24:49;;;;;;;6.05;1.90;;;14.80;99.90;;;;;;6196226;23;20022;-72
2023/08/14 01:27:16;;;;;;;4.18;1.70;;;14.80;99.90;;;;;;6195501;23;20075;-72
2023/08/14 01:29:42;;;;;;;6.57;1.95;;;14.80;99.90;;;;;;6196090;23;20008;-72
2023/08/14 01:32:08;;;;;;;6.25;1.55;;;14.80;99.90;;;;;;6196615;23;20014;-72
2023/08/14 01:34:34;;;;;;;8.27;1.98;;;14.90;99.90;;;;;;6191455;23;20017;-72
2023/08/14 01:37:02;;;;;;;5.05;1.55;;;14.90;99.90;;;;;;6192543;23;20091;-73
2023/08/14 01:39:47;;;;;;;6.25;1.77;;;14.90;99.90;;;;;;6194545;23;20429;-72
2023/08/14 01:42:32;;;;;;;7.78;2.00;;;15.00;99.90;;;;;;6195212;23;20056;-72
2023/08/14 01:45:04;;;;;;;5.35;1.50;;;15.00;99.90;;;;;;6195705;23;20348;-72
2023/08/14 01:47:33;;;;;;;7.20;2.00;;;15.10;99.90;;;;;;6197922;23;20011;-72
2023/08/14 01:49:59;;;;;;;8.70;1.73;;;15.10;99.90;;;;;;6195112;23;20043;-72
2023/08/14 01:52:26;;;;;;;4.93;1.73;;;15.10;99.90;;;;;;6189765;23;20012;-72
2023/08/14 01:54:52;;;;;;;6.90;1.48;;;15.20;99.90;;;;;;6190605;23;20016;-72
2023/08/14 01:57:17;;;;;;;4.60;1.40;;;15.20;99.90;;;;;;6191794;23;20498;-73
2023/08/14 01:59:46;;;;;;;6.38;1.45;;;15.30;99.90;;;;;;6188486;23;20094;-72
2023/08/14 02:02:12;;;;;;;8.95;1.58;;;15.30;99.90;;;;;;6191063;23;20011;-72
2023/08/14 02:04:38;;;;;;;6.60;1.45;;;15.30;99.90;;;;;;6195208;23;20028;-72
2023/08/14 02:07:09;;;;;;;7.57;1.50;;;15.40;99.90;;;;;;6194752;23;20270;-73
2023/08/14 02:09:36;;;;;;;3.30;1.08;;;15.40;99.90;;;;;;6191216;23;20418;-72
2023/08/14 02:12:02;;;;;;;4.80;1.50;;;15.40;99.90;;;;;;6190401;23;20012;-72
2023/08/14 02:14:27;;;;;;;6.93;1.45;;;15.50;99.90;;;;;;6190082;23;20004;-72
2023/08/14 02:16:53;;;;;;;6.70;1.35;;;15.50;99.90;;;;;;6190914;23;20005;-72
2023/08/14 02:19:19;;;;;;;4.18;1.38;;;15.50;99.90;;;;;;6192112;23;20290;-73
2023/08/14 02:21:44;;;;;;;5.70;1.67;;;15.60;99.90;;;;;;6195166;23;20429;-72
2023/08/14 02:24:10;;;;;;;6.45;1.35;;;15.60;99.90;;;;;;6193957;23;20012;-72
2023/08/14 02:26:36;;;;;;;4.30;1.40;;;15.60;99.90;;;;;;6194913;23;20004;-72
2023/08/14 02:29:02;;;;;;;5.95;1.40;;;15.60;99.90;;;;;;6195078;23;20044;-72
2023/08/14 02:31:28;;;;;;;7.22;1.60;;;15.70;99.90;;;;;;6193736;23;20035;-72
2023/08/14 02:33:59;;;;;;;8.15;1.67;;;15.70;99.90;;;;;;6192994;23;20016;-72
2023/08/14 02:36:25;;;;;;;6.72;1.48;;;15.70;99.90;;;;;;6194335;23;20000;-72
2023/08/14 02:38:51;;;;;;;6.25;1.40;;;15.80;99.90;;;;;;6194913;23;20015;-72
2023/08/14 02:41:16;;;;;;;5.88;1.60;;;15.80;99.90;;;;;;6197160;23;20429;-73
2023/08/14 02:43:42;;;;;;;4.82;1.50;;;15.90;99.90;;;;;;6198298;23;20088;-72
2023/08/14 02:46:08;;;;;;;6.05;1.70;;;15.90;99.90;;;;;;6196997;23;20425;-72
2023/08/14 02:48:33;;;;;;;7.30;1.50;;;16.00;99.90;;;;;;6197999;23;20009;-72
2023/08/14 02:50:59;;;;;;;6.50;1.63;;;16.00;99.90;;;;;;6197598;23;20039;-72
2023/08/14 02:53:24;;;;;;;6.78;1.63;;;16.00;99.90;;;;;;6198480;23;20120;-72
2023/08/14 02:55:51;;;;;;;4.25;1.42;;;16.10;99.90;;;;;;6198523;23;20093;-72
2023/08/14 02:58:17;;;;;;;6.88;1.58;;;16.10;99.90;;;;;;6198560;23;20291;-72
2023/08/14 03:00:48;;;;;;;7.35;1.70;;;16.20;99.90;;;;;;6170724;23;20018;-72
2023/08/14 03:03:14;;;;;;;7.75;1.60;;;16.20;99.90;;;;;;6199159;23;20336;-72
2023/08/14 03:05:40;;;;;;;9.65;1.80;;;16.20;99.90;;;;;;6197389;23;20001;-72
2023/08/14 03:08:05;;;;;;;5.55;1.58;;;16.10;99.90;;;;;;6197774;23;20004;-72
2023/08/14 03:10:31;;;;;;;6.97;1.90;;;16.00;99.90;;;;;;6197997;23;20050;-72
2023/08/14 03:12:57;;;;;;;12.57;1.80;;;16.00;99.90;;;;;;6197781;23;20019;-72
2023/08/14 03:15:23;;;;;;;6.00;1.70;;;16.00;99.90;;;;;;6197798;23;20080;-72
2023/08/14 03:17:49;;;;;;;9.20;1.65;;;16.00;99.90;;;;;;6197698;23;20464;-73
2023/08/14 03:20:15;;;;;;;5.55;2.05;;;16.00;99.90;;;;;;6197618;23;20012;-73
2023/08/14 03:22:40;;;;;;;8.80;1.70;;;15.90;99.90;;;;;;6197840;23;20082;-73
2023/08/14 03:25:06;;;;;;;11.45;1.98;;;15.90;99.90;;;;;;6198794;23;20012;-74
2023/08/14 03:27:32;;;;;;;4.93;1.92;;;15.80;99.90;;;;;;6170461;23;20086;-74
2023/08/14 03:29:58;;;;;;;7.68;2.22;;;15.80;99.90;;;;;;6198024;23;20635;-73
2023/08/14 03:32:23;;;;;;;6.82;1.90;;;15.80;99.90;;;;;;6196022;23;20423;-72
2023/08/14 03:34:49;;;;;;;4.35;1.95;;;15.80;99.90;;;;;;6195812;23;20468;-73
2023/08/14 03:37:15;;;;;;;4.18;1.80;;;15.80;99.90;;;;;;6195561;23;20004;-72
2023/08/14 03:39:40;;;;;;;5.60;1.85;;;15.70;99.90;;;;;;6196974;23;20457;-72
2023/08/14 03:42:06;;;;;;;4.20;1.75;;;15.80;99.90;;;;;;6197065;23;20209;-73
2023/08/14 03:44:32;;;;;;;6.20;2.10;;;15.70;99.90;;;;;;6197689;23;20172;-72
2023/08/14 03:46:57;;;;;;;3.25;1.65;;;15.70;99.90;;;;;;6198266;23;20020;-72
2023/08/14 03:49:23;;;;;;;5.05;1.88;;;15.70;99.90;;;;;;6196092;23;20090;-72
2023/08/14 03:51:48;;;;;;;4.55;1.98;;;15.70;99.90;;;;;;6197975;23;20074;-72
2023/08/14 03:54:14;;;;;;;4.03;1.80;;;15.70;99.90;;;;;;6196641;23;20084;-72
2023/08/14 03:56:40;;;;;;;4.13;1.98;;;15.70;99.90;;;;;;6196187;23;20012;-72
2023/08/14 03:59:05;;;;;;;6.47;2.40;;;15.70;99.90;;;;;;6196574;23;20024;-72
2023/08/14 04:01:32;;;;;;;6.40;2.10;;;15.70;99.90;;;;;;6196964;23;20005;-72
2023/08/14 04:03:57;;;;;;;6.60;2.22;;;15.70;99.90;;;;;;6196073;23;20070;-72
2023/08/14 04:06:23;;;;;;;9.23;2.35;;;15.70;99.90;;;;;;6197261;23;20008;-72
2023/08/14 04:08:49;;;;;;;7.10;2.33;;;15.70;99.90;;;;;;6196723;23;20012;-72
2023/08/14 04:11:14;;;;;;;8.45;2.25;;;15.80;99.90;;;;;;6196976;23;20438;-72
2023/08/14 04:13:40;;;;;;;9.30;2.50;;;15.80;99.90;;;;;;6196548;23;20437;-72
2023/08/14 04:16:05;;;;;;;7.95;2.22;;;15.80;99.90;;;;;;6194789;23;20376;-72
2023/08/14 04:18:31;;;;;;;6.70;2.35;;;15.80;99.90;;;;;;6193105;23;20011;-72
2023/08/14 04:20:57;;;;;;;7.38;2.47;;;15.90;99.90;;;;;;6193882;23;20012;-72
2023/08/14 04:23:24;;;;;;;7.03;2.65;;;15.90;99.90;;;;;;6197292;23;20038;-72
2023/08/14 04:25:53;;;;;;;10.60;2.63;;;15.90;99.90;;;;;;6197465;23;20019;-72
2023/08/14 04:28:19;;;;;;;7.07;2.35;;;15.90;99.90;;;;;;6196875;23;20032;-72
2023/08/14 04:30:44;;;;;;;9.27;2.63;;;15.90;99.90;;;;;;6194847;23;20326;-71
2023/08/14 04:33:10;;;;;;;11.30;2.40;;;15.80;99.90;;;;;;6194699;23;20294;-72
2023/08/14 04:35:37;;;;;;;9.85;2.55;;;15.90;99.90;;;;;;6192022;23;20035;-72
2023/08/14 04:38:03;;;;;;;8.30;2.47;;;15.90;99.90;;;;;;6196294;23;20004;-72
2023/08/14 04:40:29;;;;;;;4.45;2.30;;;15.90;99.90;;;;;;6197512;23;20508;-72
2023/08/14 04:42:55;;;;;;;10.15;2.53;;;15.80;99.90;;;;;;6197472;23;20095;-72
2023/08/14 04:45:21;;;;;;;8.95;2.20;;;15.70;99.90;;;;;;6196003;23;20028;-72
2023/08/14 04:47:47;;;;;;;6.13;2.53;;;15.70;99.90;;;;;;6196502;23;20356;-71
2023/08/14 04:50:12;;;;;;;6.40;2.28;;;15.70;99.90;;;;;;6195942;23;20000;-72
2023/08/14 04:52:38;;;;;;;6.25;2.47;;;15.60;99.90;;;;;;6196667;23;20008;-72
2023/08/14 04:55:05;;;;;;;6.90;2.90;;;15.60;99.90;;;;;;6197559;23;20008;-72
2023/08/14 04:57:31;;;;;;;10.43;2.72;;;15.60;99.90;;;;;;6195809;23;20000;-71
2023/08/14 04:59:57;;;;;;;9.32;2.22;;;15.60;99.90;;;;;;6196267;23;20009;-72
2023/08/14 05:02:23;;;;;;;5.93;2.33;;;15.70;99.90;;;;;;6190134;23;20448;-71
2023/08/14 05:04:49;;;;;;;4.85;2.55;;;15.70;99.90;;;;;;6191084;23;20015;-71
2023/08/14 05:07:14;;;;;;;6.65;2.50;;;15.70;99.90;;;;;;6165169;23;20047;-71
2023/08/14 05:09:40;;;;;;;9.20;2.40;;;15.80;99.90;;;;;;6191941;23;20016;-71
2023/08/14 05:12:06;;;;;;;4.50;2.30;;;15.80;99.90;;;;;;6195287;23;20322;-71
2023/08/14 05:14:31;;;;;;;6.35;2.47;;;15.80;99.90;;;;;;6194363;23;20005;-71
2023/08/14 05:16:57;;;;;;;4.70;2.35;;;15.90;99.90;;;;;;6193465;23;20115;-71
2023/08/14 05:19:23;;;;;;;7.78;2.53;;;15.90;99.90;;;;;;6163769;23;20032;-71
2023/08/14 05:21:48;;;;;;;8.10;2.40;;;16.00;99.90;;;;;;6193312;23;20155;-71
2023/08/14 05:24:14;;;;;;;4.38;2.47;;;16.10;99.90;;;;;;6195069;23;20470;-71
2023/08/14 05:26:40;;;;;;;5.68;2.63;;;16.20;99.90;;;;;;6194367;23;20160;-71
2023/08/14 05:29:06;;;;;;;11.52;2.90;;;16.20;99.90;;;;;;6190620;23;20012;-71
2023/08/14 05:31:31;;;;;;;6.55;2.70;;;16.30;99.90;;;;;;6193568;23;20403;-71
2023/08/14 05:33:57;;;;;;;4.82;2.40;;;16.40;99.90;;;;;;6194304;23;20055;-71
2023/08/14 05:36:23;;;;;;;13.10;3.20;;;16.40;99.90;;;;;;6193596;23;20472;-71
2023/08/14 05:38:49;;;;;;;4.85;2.42;;;16.50;99.90;;;;;;6190188;23;20348;-71
2023/08/14 05:41:15;;;;;;;11.32;3.00;;;16.50;99.90;;;;;;6192448;23;20087;-71
2023/08/14 05:43:41;;;;;;;6.68;2.50;;;16.60;99.90;;;;;;6194540;23;20016;-71
2023/08/14 05:46:06;;;;;;;12.18;2.75;;;16.70;99.90;;;;;;6194930;23;20457;-71
2023/08/14 05:48:32;;;;;;;6.43;2.70;;;16.80;99.90;;;;;;6195528;23;20046;-71
2023/08/14 05:50:57;;;;;;;10.35;3.00;;;16.80;99.90;;;;;;6194392;23;20416;-71
2023/08/14 05:53:23;;;;;;;7.38;2.90;;;17.00;99.90;;;;;;6195744;23;20001;-71
2023/08/14 05:55:49;;;;;;;8.77;2.80;;;17.20;99.90;;;;;;6196190;23;20008;-71
2023/08/14 05:58:14;;;;;;;9.32;2.78;;;17.30;99.90;;;;;;6192609;23;20396;-71
2023/08/14 06:00:40;;;;;;;8.60;2.65;;;17.40;99.90;;;;;;6191588;23;20349;-71
2023/08/14 06:03:08;;;;;;;7.25;2.50;;;17.50;99.90;;;;;;6192809;23;20035;-71
2023/08/14 06:05:34;;;;;;;8.48;2.47;;;17.60;99.90;;;;;;6191422;23;20001;-71
2023/08/14 06:07:59;;;;;;;9.40;2.72;;;17.70;99.90;;;;;;6191149;23;20276;-71
2023/08/14 06:10:25;;;;;;;6.40;2.25;;;17.70;99.90;;;;;;6193015;23;20038;-71
2023/08/14 06:12:51;;;;;;;5.28;2.50;;;17.70;99.90;;;;;;6191232;23;20056;-71
2023/08/14 06:15:21;;;;;;;7.45;2.10;;;17.70;99.90;;;;;;6188400;23;20015;-71
2023/08/14 06:17:48;;;;;;;8.00;2.38;;;17.80;99.90;;;;;;6193247;23;20008;-71
2023/08/14 06:20:14;;;;;;;5.70;2.35;;;18.00;99.90;;;;;;6193672;23;20429;-71
2023/08/14 06:22:42;;;;;;;8.38;2.22;;;18.10;99.90;;;;;;6193974;23;20028;-71
2023/08/14 06:25:08;;;;;;;5.20;2.30;;;18.20;99.90;;;;;;6190855;23;20175;-71
2023/08/14 06:27:34;;;;;;;8.55;2.33;;;18.30;99.90;;;;;;6192039;23;20007;-71
2023/08/14 06:30:00;;;;;;;6.15;2.15;;;18.50;99.90;;;;;;6194341;23;20009;-71
2023/08/14 06:32:26;;;;;;;8.40;2.42;;;18.60;99.90;;;;;;6187008;23;20083;-71
2023/08/14 06:34:51;;;;;;;7.40;1.95;;;18.70;99.90;;;;;;6188119;23;20120;-71
2023/08/14 06:37:17;;;;;;;7.53;2.20;;;18.70;99.90;;;;;;6193084;23;20062;-71
2023/08/14 06:39:43;;;;;;;6.75;1.52;;;18.60;99.90;;;;;;6191864;23;20013;-71
2023/08/14 06:42:08;;;;;;;5.18;1.98;;;18.60;99.90;;;;;;6195132;23;20239;-71
2023/08/14 06:44:34;;;;;;;7.82;2.28;;;18.60;99.90;;;;;;6193270;23;20173;-71
2023/08/14 06:47:00;;;;;;;6.20;1.98;;;18.70;99.90;;;;;;6194156;23;20333;-71
2023/08/14 06:49:27;;;;;;;5.82;1.83;;;19.00;99.90;;;;;;6192571;23;20067;-71
2023/08/14 06:51:52;;;;;;;7.28;1.92;;;19.00;99.90;;;;;;6193601;23;20369;-71
2023/08/14 06:54:18;;;;;;;6.82;1.60;;;19.30;99.90;;;;;;6195060;23;20062;-71
2023/08/14 06:56:44;;;;;;;5.15;1.85;;;19.60;99.90;;;;;;6195468;23;20421;-71
2023/08/14 06:59:10;;;;;;;8.15;1.92;;;19.80;99.90;;;;;;6167268;23;20012;-72
2023/08/14 07:01:35;;;;;;;5.20;1.65;;;20.10;99.90;;;;;;6193926;23;20080;-71
2023/08/14 07:04:01;;;;;;;8.90;1.83;;;20.30;99.90;;;;;;6190715;23;20493;-71
2023/08/14 07:06:27;;;;;;;6.85;1.80;;;20.20;99.90;;;;;;6192702;23;20470;-71
2023/08/14 07:08:52;;;;;;;6.10;1.80;;;20.20;99.90;;;;;;6195106;23;20146;-72
2023/08/14 07:11:18;;;;;;;5.13;1.70;;;20.40;99.90;;;;;;6195426;23;20035;-72
2023/08/14 07:13:44;;;;;;;4.70;1.50;;;20.70;99.90;;;;;;6194913;23;20104;-72
2023/08/14 07:16:10;;;;;;;6.35;1.70;;;21.30;99.90;;;;;;6194738;23;20115;-71
2023/08/14 07:18:36;;;;;;;8.57;1.70;;;21.10;99.90;;;;;;6193457;23;20462;-71
2023/08/14 07:21:01;;;;;;;9.07;2.22;;;20.90;99.90;;;;;;6194184;23;20015;-71
2023/08/14 07:23:27;;;;;;;10.73;1.88;;;21.00;99.90;;;;;;6195672;23;20106;-71
2023/08/14 07:25:55;;;;;;;8.10;1.35;;;21.10;99.90;;;;;;6196204;23;20031;-71
2023/08/14 07:28:20;;;;;;;6.75;1.58;;;21.30;99.90;;;;;;6195308;23;20008;-71
2023/08/14 07:30:46;;;;;;;9.75;2.17;;;21.80;99.90;;;;;;6197268;23;20012;-71
2023/08/14 07:33:13;;;;;;;8.10;1.42;;;22.40;99.90;;;;;;6170255;23;20016;-72
2023/08/14 07:35:39;;;;;;;7.38;1.45;;;22.80;99.90;;;;;;6196368;23;20008;-72
2023/08/14 07:38:05;;;;;;;6.75;1.40;;;22.70;99.90;;;;;;6195908;23;20072;-71
2023/08/14 07:40:30;;;;;;;8.88;1.50;;;22.60;99.90;;;;;;6194784;23;20031;-71
2023/08/14 07:42:56;;;;;;;14.00;1.80;;;22.40;99.90;;;;;;6192292;23;20374;-72
2023/08/14 07:45:22;;;;;;;7.10;1.52;;;22.00;99.90;;;;;;6160609;23;20051;-72
2023/08/14 07:47:47;;;;;;;6.90;1.70;;;22.00;99.90;;;;;;6182385;23;20014;-72
2023/08/14 07:50:13;;;;;;;9.25;1.20;;;21.70;99.90;;;;;;6179413;23;20373;-72
2023/08/14 07:52:39;;;;;;;8.48;1.77;;;21.90;99.90;;;;;;6183410;23;20008;-72
2023/08/14 07:55:05;;;;;;;5.80;1.50;;;22.50;99.90;;;;;;6190652;23;20095;-72
2023/08/14 07:57:31;;;;;;;8.82;1.45;;;24.20;99.90;;;;;;6194625;23;20047;-72
2023/08/14 07:59:57;;;;;;;4.63;1.13;;;25.60;99.90;;;;;;6196259;23;20310;-71
2023/08/14 08:02:23;;;;;;;9.50;1.40;;;28.50;99.90;;;;;;6196204;23;20445;-72
2023/08/14 08:04:49;;;;;;;5.93;1.30;;;31.90;97.10;;;;;;6196398;23;20019;-72
2023/08/14 08:07:15;;;;;;;12.43;1.75;;;32.00;87.00;;;;;;6191765;23;20008;-72
2023/08/14 08:09:41;;;;;;;5.72;1.30;;;31.70;86.60;;;;;;6190639;23;20004;-71
2023/08/14 08:12:07;;;;;;;8.65;1.85;;;32.10;79.40;;;;;;6193946;23;20470;-71
2023/08/14 08:14:34;;;;;;;11.55;1.88;;;30.90;80.40;;;;;;6190847;23;20010;-71
2023/08/14 08:16:59;;;;;;;6.05;1.40;;;29.40;81.80;;;;;;6191883;23;20004;-71
2023/08/14 08:19:25;;;;;;;8.50;1.55;;;29.20;88.20;;;;;;6189100;23;20111;-72
2023/08/14 08:21:51;;;;;;;12.63;2.13;;;28.60;90.50;;;;;;6188930;23;20005;-71
2023/08/14 08:24:17;;;;;;;9.23;2.15;;;27.60;91.90;;;;;;6191042;23;20440;-71
2023/08/14 08:26:43;;;;;;;7.97;1.70;;;26.60;97.70;;;;;;6193079;23;20079;-72
2023/08/14 08:29:09;;;;;;;8.88;1.85;;;25.90;99.90;;;;;;6190993;23;20040;-71
2023/08/14 08:31:34;;;;;;;12.80;2.03;;;26.00;99.90;;;;;;6184235;23;20005;-71
2023/08/14 08:34:00;;;;;;;8.68;1.73;;;25.60;99.90;;;;;;6182468;23;20431;-71
2023/08/14 08:36:26;;;;;;;9.55;1.98;;;25.80;99.90;;;;;;6184520;23;20072;-72
2023/08/14 08:38:51;;;;;;;9.05;2.03;;;27.30;99.90;;;;;;6188670;23;20058;-72
2023/08/14 08:41:27;;;;;;;8.43;1.70;;;30.30;97.70;;;;;;6185005;23;20001;-72
2023/08/14 08:44:00;;;;;;;6.35;1.40;;;33.70;83.10;;;;;;6186768;23;20023;-72
2023/08/14 08:46:27;;;;;;;7.78;1.50;;;36.40;66.90;;;;;;6183806;23;20033;-72
2023/08/14 08:48:53;;;;;;;7.90;1.70;;;37.30;58.10;;;;;;6180047;23;20013;-72
2023/08/14 08:51:19;;;;;;;7.68;1.42;;;35.50;56.90;;;;;;6177763;23;20454;-72
2023/08/14 08:53:45;;;;;;;7.97;1.50;;;36.00;58.60;;;;;;6183391;23;20016;-72
2023/08/14 08:56:11;;;;;;;6.35;1.67;;;36.70;55.30;;;;;;6187711;23;20015;-71
2023/08/14 08:58:37;;;;;;;7.80;1.83;;;36.20;55.50;;;;;;6189010;23;20028;-71
2023/08/14 09:01:04;;;;;;;8.55;2.08;;;36.30;54.30;;;;;;6192953;23;20011;-72
2023/08/14 09:03:30;;;;;;;6.30;1.70;;;36.50;53.40;;;;;;6192470;23;20012;-71
2023/08/14 09:05:56;;;;;;;11.18;1.70;;;38.10;55.00;;;;;;6190465;23;20008;-72
2023/08/14 09:08:21;;;;;;;7.93;1.75;;;38.90;54.40;;;;;;6193835;23;20322;-71
2023/08/14 09:10:47;;;;;;;9.40;1.88;;;39.40;52.20;;;;;;6194511;23;20441;-72
2023/08/14 09:13:14;;;;;;;6.50;1.95;;;40.20;48.20;;;;;;6193462;23;20416;-72
2023/08/14 09:15:43;;;;;;;7.10;1.83;;;37.50;47.70;;;;;;6190199;23;20008;-72
2023/08/14 09:18:12;;;;;;;7.30;1.40;;;36.70;50.00;;;;;;6187301;23;20124;-72
2023/08/14 09:20:39;;;;;;;7.95;1.85;;;36.10;52.40;;;;;;6182941;23;20413;-71
2023/08/14 09:23:09;;;;;;;8.35;1.90;;;36.00;51.00;;;;;;6159768;23;20020;-72
2023/08/14 09:25:35;;;;;;;9.57;1.90;;;33.40;53.60;;;;;;6158246;23;20019;-72
2023/08/14 09:28:01;;;;;;;10.48;1.90;;;32.10;57.20;;;;;;6187856;23;20017;-72
2023/08/14 09:30:27;;;;;;;11.10;1.95;;;31.10;57.80;;;;;;6192038;23;20007;-72
2023/08/14 09:32:54;;;;;;;11.82;2.10;;;30.40;62.50;;;;;;6196438;23;20046;-72
2023/08/14 09:35:20;;;;;;;9.32;1.95;;;30.00;65.30;;;;;;6167015;23;20004;-72
2023/08/14 09:37:47;;;;;;;10.88;2.20;;;29.70;65.90;;;;;;6196455;23;20082;-73
2023/08/14 09:40:15;;;;;;;12.10;2.10;;;29.40;68.90;;;;;;6196799;23;21024;-72
2023/08/14 09:42:45;;;;;;;9.10;1.52;;;28.70;72.20;;;;;;6194668;23;20514;-72
2023/08/14 09:45:13;;;;;;;11.32;2.17;;;28.00;76.50;;;;;;6197981;23;20452;-72
2023/08/14 09:47:41;;;;;;;9.82;1.75;;;28.40;77.50;;;;;;6192818;23;20005;-72
2023/08/14 09:50:07;;;;;;;9.95;2.20;;;28.90;85.50;;;;;;6194149;23;20008;-72
2023/08/14 09:52:33;;;;;;;10.38;1.92;;;30.50;76.50;;;;;;6196371;23;20082;-72
2023/08/14 09:55:02;;;;;;;8.50;2.10;;;32.10;66.20;;;;;;6196048;23;20008;-72
2023/08/14 09:57:29;;;;;;;8.02;1.67;;;31.40;64.00;;;;;;6195533;23;20045;-73
2023/08/14 09:59:55;;;;;;;9.73;1.83;;;31.60;63.50;;;;;;6190309;23;20036;-72
2023/08/14 10:02:24;;;;;;;8.75;1.90;;;32.00;64.90;;;;;;6187864;23;20012;-72
2023/08/14 10:04:51;;;;;;;6.53;1.60;;;32.80;62.50;;;;;;6188762;23;20509;-72
2023/08/14 10:07:19;;;;;;;8.55;1.80;;;32.30;62.20;;;;;;6194634;23;20463;-72
2023/08/14 10:09:55;;;;;;;9.52;1.85;;;31.60;65.50;;;;;;6194138;23;20005;-72
2023/08/14 10:12:33;;;;;;;11.23;1.77;;;31.30;65.60;;;;;;6191984;23;20001;-72
2023/08/14 10:15:09;;;;;;;12.57;1.88;;;31.90;63.20;;;;;;6192383;23;20051;-72
2023/08/14 10:17:43;;;;;;;12.25;1.60;;;34.20;62.00;;;;;;6168291;23;20015;-72
2023/08/14 10:20:14;;;;;;;6.72;1.77;;;36.90;61.60;;;;;;6193370;23;20005;-72
2023/08/14 10:22:40;;;;;;;7.53;2.13;;;38.60;53.30;;;;;;6192259;23;20404;-72
2023/08/14 10:25:07;;;;;;;9.70;1.48;;;40.50;48.60;;;;;;6190604;23;20027;-73
2023/08/14 10:27:34;;;;;;;7.90;1.63;;;39.30;47.10;;;;;;6191808;23;20028;-72
2023/08/14 10:30:01;;;;;;;9.05;1.88;;;38.20;49.00;;;;;;6194270;23;20314;-72
2023/08/14 10:32:28;;;;;;;9.02;2.05;;;35.40;50.90;;;;;;6195020;23;20009;-73
2023/08/14 10:34:55;;;;;;;8.50;1.70;;;33.40;54.00;;;;;;6193465;23;20036;-72
2023/08/14 10:37:38;;;;;;;6.40;1.52;;;32.20;57.30;;;;;;6191274;23;20008;-72
2023/08/14 10:40:21;;;;;;;9.05;1.77;;;31.40;58.90;;;;;;6195621;23;20005;-73
2023/08/14 10:42:52;;;;;;;10.52;2.08;;;29.80;64.70;;;;;;6196382;23;20603;-73
2023/08/14 10:45:22;;;;;;;9.85;1.70;;;27.70;65.70;;;;;;6195286;23;20015;-72
2023/08/14 10:47:49;;;;;;;9.70;2.03;;;27.20;75.20;;;;;;6195076;23;20016;-73
2023/08/14 10:50:20;;;;;;;8.80;2.30;;;27.40;74.90;;;;;;6193734;23;20275;-72
2023/08/14 10:52:51;;;;;;;11.95;1.85;;;27.40;75.90;;;;;;6192625;23;20012;-72
2023/08/14 10:55:39;;;;;;;11.88;2.33;;;26.20;77.80;;;;;;6191866;23;20713;-73
2023/08/14 10:58:31;;;;;;;10.60;1.80;;;25.40;90.20;;;;;;6190914;23;20083;-72
2023/08/14 11:00:58;;;;;;;14.27;2.42;;;23.90;98.70;;;;;;6192061;23;20603;-72
2023/08/14 11:03:24;;;;;;;11.95;2.20;;;23.40;99.90;;;;;;6195788;23;20537;-72
2023/08/14 11:05:49;;;;;;;16.58;2.40;;;23.00;99.90;;;;;;6195948;23;20036;-73
2023/08/14 11:08:16;;;;;;;10.13;1.83;;;22.70;99.90;;;;;;6196491;23;20008;-72
2023/08/14 11:10:42;;;;;;;13.70;2.05;;;22.80;99.90;;;;;;6198237;23;20004;-72
2023/08/14 11:13:09;;;;;;;9.85;2.15;;;23.30;99.90;;;;;;6197692;23;20018;-72
2023/08/14 11:15:39;;;;;;;11.50;2.03;;;24.20;99.90;;;;;;6196659;23;19996;-72
2023/08/14 11:18:09;;;;;;;11.85;1.90;;;25.10;99.90;;;;;;6195328;23;20089;-72
2023/08/14 11:20:37;;;;;;;10.23;1.70;;;28.20;99.90;;;;;;6192113;23;20005;-72
2023/08/14 11:23:03;;;;;;;7.35;1.73;;;31.70;91.10;;;;;;6194654;23;20246;-72
2023/08/14 11:25:30;;;;;;;5.72;1.42;;;33.40;73.30;;;;;;6165398;23;20487;-73
2023/08/14 11:27:56;;;;;;;10.02;2.15;;;34.50;66.70;;;;;;6192410;23;20008;-72
2023/08/14 11:30:24;;;;;;;9.57;1.90;;;34.10;61.80;;;;;;6196454;23;20012;-72
2023/08/14 11:32:50;;;;;;;8.90;1.60;;;34.10;63.20;;;;;;6192421;23;20016;-72
2023/08/14 11:35:17;;;;;;;8.25;1.85;;;33.40;62.60;;;;;;6194506;23;20392;-72
2023/08/14 11:37:43;;;;;;;8.82;1.98;;;32.60;65.50;;;;;;6195102;23;20008;-73
2023/08/14 11:40:10;;;;;;;10.82;2.28;;;32.10;63.40;;;;;;6195527;23;20412;-72
2023/08/14 11:42:37;;;;;;;10.98;2.22;;;30.50;64.80;;;;;;6196122;23;20024;-72
2023/08/14 11:45:04;;;;;;;7.57;1.65;;;29.40;66.40;;;;;;6195833;23;20375;-72
2023/08/14 11:47:35;;;;;;;9.02;2.22;;;29.40;69.00;;;;;;6195865;23;20015;-72
2023/08/14 11:50:03;;;;;;;11.35;2.03;;;28.90;69.00;;;;;;6187641;23;20058;-72
2023/08/14 11:52:29;;;;;;;9.15;1.98;;;28.10;76.80;;;;;;6187348;23;20786;-72
2023/08/14 11:54:56;;;;;;;11.20;1.80;;;28.50;84.20;;;;;;6188354;23;20005;-72
2023/08/14 11:57:31;;;;;;;10.50;2.03;;;28.60;78.40;;;;;;6191533;23;20480;-72
2023/08/14 11:59:58;;;;;;;8.07;1.73;;;28.80;76.60;;;;;;6193320;23;20032;-72
2023/08/14 12:02:25;;;;;;;8.27;1.90;;;28.80;80.30;;;;;;6192960;23;20005;-72
2023/08/14 12:05:00;;;;;;;7.35;1.80;;;28.40;74.90;;;;;;6189820;23;20046;-72
2023/08/14 12:07:27;;;;;;;8.40;1.88;;;27.80;80.40;;;;;;6190502;23;20012;-71
2023/08/14 12:09:54;;;;;;;10.25;2.13;;;27.40;81.70;;;;;;6187698;23;20104;-72
2023/08/14 12:12:20;;;;;;;9.27;1.88;;;26.70;84.00;;;;;;6190682;23;20051;-72
2023/08/14 12:14:48;;;;;;;11.02;1.70;;;25.60;88.60;;;;;;6188507;23;20368;-72
2023/08/14 12:17:15;;;;;;;11.13;1.55;;;25.90;91.40;;;;;;6193628;23;20012;-72
2023/08/14 12:19:42;;;;;;;9.52;1.63;;;25.70;92.60;;;;;;6195825;23;20011;-72
2023/08/14 12:22:08;;;;;;;13.15;2.22;;;26.10;93.30;;;;;;6200098;23;20610;-73
2023/08/14 12:24:43;;;;;;;10.52;1.80;;;26.50;90.60;;;;;;6194071;23;20013;-72
2023/08/14 12:27:19;;;;;;;11.35;2.53;;;26.50;93.00;;;;;;6191521;23;20427;-72
2023/08/14 12:29:46;;;;;;;7.22;1.50;;;26.40;91.40;;;;;;6190709;23;20005;-71
2023/08/14 12:32:11;;;;;;;10.50;2.15;;;25.90;91.30;;;;;;6191809;23;20401;-71
2023/08/14 12:34:37;;;;;;;10.48;1.95;;;25.60;93.30;;;;;;6189161;23;20092;-72
2023/08/14 12:37:04;;;;;;;8.63;1.60;;;26.00;94.60;;;;;;6190875;23;20008;-72
2023/08/14 12:39:30;;;;;;;7.50;1.70;;;25.90;93.60;;;;;;6190218;23;20243;-72
2023/08/14 12:41:56;;;;;;;10.77;2.00;;;25.60;93.50;;;;;;6194721;23;20008;-71
2023/08/14 12:44:21;;;;;;;8.30;1.85;;;25.90;95.20;;;;;;6194876;23;20353;-72